University Park Airport
KUNV : rendu visible

Aérodrome :











RETROUVEZ-NOUS SUR...

 
LOGIN :

S'inscrire | Disclaimer

   EN    FR    IT 

 









Légende :    VFR   VFR Marginal   IFR   IFR Intensif   IFR Très Intensif
Visi : 
Plafond : 
>= 8 km
>= 3000ft
5 à 8 km
1000 à 3000 ft
1500m à 5 km
500 à 1000 ft
800 à 1500m
200 à 500 ft
< 800m
< 200 ft
Symboles :   Orages  Brouillard  Fortes neiges  Fortes précipitations  Vent > 20 kt






- Altitude de l'aérodrome : 1239 ft


KUNV - University Park

DERNIER METAR :
  • 240355Z AUTO 00000KT 10SM CLR M02/M07 A3029 RMK AO2 T10231070 400101095

METARs EXPIRÉS :
  • 240336Z AUTO 00000KT 10SM CLR M02/M07 A3029 RMK AO2 T10231068
  • 240316Z AUTO 00000KT 10SM CLR M02/M07 A3029 RMK AO2 T10221068
  • 240253Z 00000KT 10SM SKC M03/M07 A3029
  • 240153Z 32003KT 10SM SKC M03/M07 A3029

TAF KUNV
Valide du 24 à 00h jusqu'au 25 à 00h UTC


232339Z 2400/2424 00000KT P6SM OVC120
FM241500 06004KT P6SM OVC020
FM241800 09006KT P6SM -SHRA OVC015
FM242000 10007KT P6SM -SHRA OVC025 WS020/14040KT
FM242330 10009KT 1 1/2SM -RA OVC005 WS020/14040KT



MET'MAP, la Météo Aéronautique d'un coup d'oeil ! - Copyright ORBIFLY Décembre 2007 - Disclaimer

ORBIFLY MET'MAP TEAM :

Programmation & Développement : Alexandra Zaïnal
Sur une idée originale de : Baudouin d'Aumeries
Assistance à la programmation : Marc-Olivier Méhu
Soutien technique & logistique : Manuel Goepfert

Contact : metmap@orbifly.com




SOURCES & CREDITS :

   NOAA       Earth
Advisory